sensor_id;sensor_type;location;lat;lon;timestamp;P1;durP1;ratioP1;P2;durP2;ratioP2
15869;SDS011;8034;51.442;-0.522;2022-07-04T00:01:46;12.40;;;11.90;;
15869;SDS011;8034;51.442;-0.522;2022-07-04T00:04:16;13.30;;;12.80;;
15869;SDS011;8034;51.442;-0.522;2022-07-04T00:07:31;13.27;;;12.67;;
15869;SDS011;8034;51.442;-0.522;2022-07-04T00:10:01;13.10;;;12.50;;
15869;SDS011;8034;51.442;-0.522;2022-07-04T00:13:16;12.90;;;12.40;;
15869;SDS011;8034;51.442;-0.522;2022-07-04T00:15:46;12.80;;;12.30;;
15869;SDS011;8034;51.442;-0.522;2022-07-04T00:19:00;12.20;;;11.70;;
15869;SDS011;8034;51.442;-0.522;2022-07-04T00:21:31;13.17;;;12.57;;
15869;SDS011;8034;51.442;-0.522;2022-07-04T00:24:45;12.60;;;12.10;;
15869;SDS011;8034;51.442;-0.522;2022-07-04T00:27:15;12.93;;;12.33;;
15869;SDS011;8034;51.442;-0.522;2022-07-04T00:30:29;12.90;;;12.40;;
15869;SDS011;8034;51.442;-0.522;2022-07-04T00:33:00;12.87;;;12.20;;
15869;SDS011;8034;51.442;-0.522;2022-07-04T00:36:14;12.47;;;11.97;;
15869;SDS011;8034;51.442;-0.522;2022-07-04T00:38:45;12.90;;;12.30;;
15869;SDS011;8034;51.442;-0.522;2022-07-04T00:41:59;13.23;;;12.60;;
15869;SDS011;8034;51.442;-0.522;2022-07-04T00:44:29;13.23;;;12.63;;
15869;SDS011;8034;51.442;-0.522;2022-07-04T00:47:44;13.30;;;12.80;;
15869;SDS011;8034;51.442;-0.522;2022-07-04T00:50:14;14.10;;;13.40;;
15869;SDS011;8034;51.442;-0.522;2022-07-04T00:53:28;14.13;;;13.53;;
15869;SDS011;8034;51.442;-0.522;2022-07-04T00:55:59;14.07;;;13.37;;
15869;SDS011;8034;51.442;-0.522;2022-07-04T00:59:15;15.07;;;14.37;;
15869;SDS011;8034;51.442;-0.522;2022-07-04T01:01:46;15.27;;;14.67;;
15869;SDS011;8034;51.442;-0.522;2022-07-04T01:05:00;17.07;;;16.27;;
15869;SDS011;8034;51.442;-0.522;2022-07-04T01:07:31;17.33;;;16.53;;
15869;SDS011;8034;51.442;-0.522;2022-07-04T01:10:45;16.57;;;15.87;;
15869;SDS011;8034;51.442;-0.522;2022-07-04T01:13:21;16.77;;;15.90;;
15869;SDS011;8034;51.442;-0.522;2022-07-04T01:16:36;16.20;;;15.23;;
15869;SDS011;8034;51.442;-0.522;2022-07-04T01:19:06;16.23;;;15.53;;
15869;SDS011;8034;51.442;-0.522;2022-07-04T01:22:20;16.47;;;15.63;;
15869;SDS011;8034;51.442;-0.522;2022-07-04T01:24:51;16.00;;;15.30;;
15869;SDS011;8034;51.442;-0.522;2022-07-04T01:28:05;16.17;;;15.37;;
15869;SDS011;8034;51.442;-0.522;2022-07-04T01:30:36;16.40;;;15.70;;
15869;SDS011;8034;51.442;-0.522;2022-07-04T01:33:50;16.57;;;15.80;;
15869;SDS011;8034;51.442;-0.522;2022-07-04T01:36:21;16.47;;;15.57;;
15869;SDS011;8034;51.442;-0.522;2022-07-04T01:39:35;16.53;;;15.83;;
15869;SDS011;8034;51.442;-0.522;2022-07-04T01:45:19;17.80;;;17.10;;
15869;SDS011;8034;51.442;-0.522;2022-07-04T01:47:49;18.63;;;17.83;;
15869;SDS011;8034;51.442;-0.522;2022-07-04T01:51:04;18.73;;;17.93;;
15869;SDS011;8034;51.442;-0.522;2022-07-04T01:53:36;19.23;;;18.43;;
15869;SDS011;8034;51.442;-0.522;2022-07-04T01:56:50;19.23;;;18.23;;
15869;SDS011;8034;51.442;-0.522;2022-07-04T01:59:21;19.83;;;18.83;;
15869;SDS011;8034;51.442;-0.522;2022-07-04T02:02:35;20.60;;;19.70;;
15869;SDS011;8034;51.442;-0.522;2022-07-04T02:05:06;22.23;;;21.23;;
15869;SDS011;8034;51.442;-0.522;2022-07-04T02:08:21;22.47;;;21.47;;
15869;SDS011;8034;51.442;-0.522;2022-07-04T02:10:53;23.67;;;22.67;;
15869;SDS011;8034;51.442;-0.522;2022-07-04T02:14:09;24.10;;;22.90;;
15869;SDS011;8034;51.442;-0.522;2022-07-04T02:16:39;24.00;;;22.90;;
15869;SDS011;8034;51.442;-0.522;2022-07-04T02:19:53;23.43;;;22.23;;
15869;SDS011;8034;51.442;-0.522;2022-07-04T02:22:23;24.63;;;23.33;;
15869;SDS011;8034;51.442;-0.522;2022-07-04T02:25:37;25.00;;;23.70;;
15869;SDS011;8034;51.442;-0.522;2022-07-04T02:28:08;25.73;;;24.53;;
15869;SDS011;8034;51.442;-0.522;2022-07-04T02:31:22;27.03;;;25.63;;
15869;SDS011;8034;51.442;-0.522;2022-07-04T02:33:53;28.20;;;26.70;;
15869;SDS011;8034;51.442;-0.522;2022-07-04T02:37:08;27.73;;;26.33;;
15869;SDS011;8034;51.442;-0.522;2022-07-04T02:39:39;28.20;;;26.80;;
15869;SDS011;8034;51.442;-0.522;2022-07-04T02:42:53;28.80;;;27.20;;
15869;SDS011;8034;51.442;-0.522;2022-07-04T02:45:23;28.80;;;27.30;;
15869;SDS011;8034;51.442;-0.522;2022-07-04T02:48:37;29.30;;;27.80;;
15869;SDS011;8034;51.442;-0.522;2022-07-04T02:51:08;29.47;;;27.87;;
15869;SDS011;8034;51.442;-0.522;2022-07-04T02:54:22;30.33;;;28.73;;
15869;SDS011;8034;51.442;-0.522;2022-07-04T02:56:52;29.83;;;28.13;;
15869;SDS011;8034;51.442;-0.522;2022-07-04T03:00:08;31.77;;;30.07;;
15869;SDS011;8034;51.442;-0.522;2022-07-04T03:02:39;33.60;;;31.80;;
15869;SDS011;8034;51.442;-0.522;2022-07-04T03:05:54;32.83;;;31.13;;
15869;SDS011;8034;51.442;-0.522;2022-07-04T03:08:24;33.77;;;31.97;;
15869;SDS011;8034;51.442;-0.522;2022-07-04T03:11:38;33.63;;;31.73;;
15869;SDS011;8034;51.442;-0.522;2022-07-04T03:14:09;34.07;;;32.17;;
15869;SDS011;8034;51.442;-0.522;2022-07-04T03:17:23;33.87;;;31.97;;
15869;SDS011;8034;51.442;-0.522;2022-07-04T03:19:53;34.33;;;32.27;;
15869;SDS011;8034;51.442;-0.522;2022-07-04T03:23:07;34.40;;;32.40;;
15869;SDS011;8034;51.442;-0.522;2022-07-04T03:25:41;34.17;;;32.17;;
15869;SDS011;8034;51.442;-0.522;2022-07-04T03:28:57;35.17;;;33.17;;
15869;SDS011;8034;51.442;-0.522;2022-07-04T03:31:28;36.03;;;33.93;;
15869;SDS011;8034;51.442;-0.522;2022-07-04T03:34:42;34.57;;;32.57;;
15869;SDS011;8034;51.442;-0.522;2022-07-04T03:37:13;35.87;;;33.87;;
15869;SDS011;8034;51.442;-0.522;2022-07-04T03:40:27;35.03;;;33.07;;
15869;SDS011;8034;51.442;-0.522;2022-07-04T03:43:00;35.50;;;33.50;;
15869;SDS011;8034;51.442;-0.522;2022-07-04T03:46:14;36.23;;;34.30;;
15869;SDS011;8034;51.442;-0.522;2022-07-04T03:48:45;35.73;;;33.80;;
15869;SDS011;8034;51.442;-0.522;2022-07-04T03:51:59;34.67;;;32.67;;
15869;SDS011;8034;51.442;-0.522;2022-07-04T03:54:29;35.97;;;33.87;;
15869;SDS011;8034;51.442;-0.522;2022-07-04T03:57:43;36.97;;;34.87;;
15869;SDS011;8034;51.442;-0.522;2022-07-04T04:00:15;35.93;;;33.93;;
15869;SDS011;8034;51.442;-0.522;2022-07-04T04:03:29;39.80;;;37.70;;
15869;SDS011;8034;51.442;-0.522;2022-07-04T04:06:17;44.10;;;41.80;;
15869;SDS011;8034;51.442;-0.522;2022-07-04T04:09:31;46.07;;;43.67;;
15869;SDS011;8034;51.442;-0.522;2022-07-04T04:12:01;45.50;;;42.90;;
15869;SDS011;8034;51.442;-0.522;2022-07-04T04:15:16;47.20;;;44.43;;
15869;SDS011;8034;51.442;-0.522;2022-07-04T04:17:49;48.47;;;45.87;;
15869;SDS011;8034;51.442;-0.522;2022-07-04T04:21:04;49.33;;;46.73;;
15869;SDS011;8034;51.442;-0.522;2022-07-04T04:23:35;49.50;;;46.80;;
15869;SDS011;8034;51.442;-0.522;2022-07-04T04:26:49;48.20;;;45.47;;
15869;SDS011;8034;51.442;-0.522;2022-07-04T04:29:20;46.70;;;44.10;;
15869;SDS011;8034;51.442;-0.522;2022-07-04T04:32:33;45.07;;;42.50;;
15869;SDS011;8034;51.442;-0.522;2022-07-04T04:35:05;43.43;;;41.03;;
15869;SDS011;8034;51.442;-0.522;2022-07-04T04:38:20;45.13;;;42.63;;
15869;SDS011;8034;51.442;-0.522;2022-07-04T04:40:51;43.57;;;41.07;;
15869;SDS011;8034;51.442;-0.522;2022-07-04T04:44:05;45.30;;;42.80;;
15869;SDS011;8034;51.442;-0.522;2022-07-04T04:46:36;44.43;;;42.03;;
15869;SDS011;8034;51.442;-0.522;2022-07-04T04:49:50;44.83;;;42.33;;
15869;SDS011;8034;51.442;-0.522;2022-07-04T04:52:21;45.77;;;43.30;;
15869;SDS011;8034;51.442;-0.522;2022-07-04T04:55:35;45.40;;;42.90;;
15869;SDS011;8034;51.442;-0.522;2022-07-04T04:58:06;44.50;;;42.10;;
15869;SDS011;8034;51.442;-0.522;2022-07-04T05:01:21;43.53;;;41.10;;
15869;SDS011;8034;51.442;-0.522;2022-07-04T05:03:52;41.93;;;39.63;;
15869;SDS011;8034;51.442;-0.522;2022-07-04T05:07:06;43.60;;;41.20;;
15869;SDS011;8034;51.442;-0.522;2022-07-04T05:09:37;43.60;;;41.23;;
15869;SDS011;8034;51.442;-0.522;2022-07-04T05:12:53;42.23;;;39.97;;
15869;SDS011;8034;51.442;-0.522;2022-07-04T05:15:23;41.97;;;39.77;;
15869;SDS011;8034;51.442;-0.522;2022-07-04T05:18:39;43.13;;;40.83;;
15869;SDS011;8034;51.442;-0.522;2022-07-04T05:21:10;42.70;;;40.40;;
15869;SDS011;8034;51.442;-0.522;2022-07-04T05:24:24;42.23;;;40.03;;
15869;SDS011;8034;51.442;-0.522;2022-07-04T05:26:54;42.00;;;39.70;;
15869;SDS011;8034;51.442;-0.522;2022-07-04T05:30:10;41.70;;;39.30;;
15869;SDS011;8034;51.442;-0.522;2022-07-04T05:32:41;39.13;;;36.77;;
15869;SDS011;8034;51.442;-0.522;2022-07-04T05:35:56;39.00;;;36.80;;
15869;SDS011;8034;51.442;-0.522;2022-07-04T05:38:28;38.80;;;36.60;;
15869;SDS011;8034;51.442;-0.522;2022-07-04T05:41:42;40.00;;;37.60;;
15869;SDS011;8034;51.442;-0.522;2022-07-04T05:44:12;40.13;;;37.83;;
15869;SDS011;8034;51.442;-0.522;2022-07-04T05:47:26;40.83;;;38.63;;
15869;SDS011;8034;51.442;-0.522;2022-07-04T05:49:57;40.50;;;38.40;;
15869;SDS011;8034;51.442;-0.522;2022-07-04T05:53:11;40.03;;;37.87;;
15869;SDS011;8034;51.442;-0.522;2022-07-04T05:55:41;38.83;;;36.83;;
15869;SDS011;8034;51.442;-0.522;2022-07-04T05:58:55;38.60;;;36.60;;
15869;SDS011;8034;51.442;-0.522;2022-07-04T06:01:26;38.53;;;36.30;;
15869;SDS011;8034;51.442;-0.522;2022-07-04T06:04:40;37.90;;;35.90;;
15869;SDS011;8034;51.442;-0.522;2022-07-04T06:07:11;37.87;;;35.80;;
15869;SDS011;8034;51.442;-0.522;2022-07-04T06:10:25;37.20;;;35.20;;
15869;SDS011;8034;51.442;-0.522;2022-07-04T06:12:56;35.00;;;33.00;;
15869;SDS011;8034;51.442;-0.522;2022-07-04T06:16:10;36.23;;;34.33;;
15869;SDS011;8034;51.442;-0.522;2022-07-04T06:18:40;36.57;;;34.73;;
15869;SDS011;8034;51.442;-0.522;2022-07-04T06:21:54;39.13;;;36.90;;
15869;SDS011;8034;51.442;-0.522;2022-07-04T06:24:25;36.73;;;34.83;;
15869;SDS011;8034;51.442;-0.522;2022-07-04T06:27:40;34.80;;;32.90;;
15869;SDS011;8034;51.442;-0.522;2022-07-04T06:30:11;33.70;;;31.90;;
15869;SDS011;8034;51.442;-0.522;2022-07-04T06:33:26;33.83;;;32.03;;
15869;SDS011;8034;51.442;-0.522;2022-07-04T06:36:03;32.93;;;31.23;;
15869;SDS011;8034;51.442;-0.522;2022-07-04T06:39:18;33.00;;;31.20;;
15869;SDS011;8034;51.442;-0.522;2022-07-04T06:41:49;32.53;;;30.93;;
15869;SDS011;8034;51.442;-0.522;2022-07-04T06:45:04;31.90;;;30.20;;
15869;SDS011;8034;51.442;-0.522;2022-07-04T06:47:37;29.93;;;28.43;;
15869;SDS011;8034;51.442;-0.522;2022-07-04T06:50:09;29.63;;;28.03;;
15869;SDS011;8034;51.442;-0.522;2022-07-04T06:53:22;29.03;;;27.53;;
15869;SDS011;8034;51.442;-0.522;2022-07-04T06:55:53;29.03;;;27.33;;
15869;SDS011;8034;51.442;-0.522;2022-07-04T06:59:07;28.13;;;26.63;;
15869;SDS011;8034;51.442;-0.522;2022-07-04T07:01:39;26.67;;;25.37;;
15869;SDS011;8034;51.442;-0.522;2022-07-04T07:04:54;28.20;;;26.73;;
15869;SDS011;8034;51.442;-0.522;2022-07-04T07:07:25;25.23;;;23.93;;
15869;SDS011;8034;51.442;-0.522;2022-07-04T07:10:41;26.00;;;24.70;;
15869;SDS011;8034;51.442;-0.522;2022-07-04T07:13:13;25.40;;;24.10;;
15869;SDS011;8034;51.442;-0.522;2022-07-04T07:16:28;25.90;;;24.50;;
15869;SDS011;8034;51.442;-0.522;2022-07-04T07:18:59;26.30;;;24.90;;
15869;SDS011;8034;51.442;-0.522;2022-07-04T07:22:14;26.07;;;24.57;;
15869;SDS011;8034;51.442;-0.522;2022-07-04T07:24:44;25.30;;;24.00;;
15869;SDS011;8034;51.442;-0.522;2022-07-04T07:28:00;24.73;;;23.43;;
15869;SDS011;8034;51.442;-0.522;2022-07-04T07:30:32;24.60;;;23.20;;
15869;SDS011;8034;51.442;-0.522;2022-07-04T07:33:46;24.10;;;22.80;;
15869;SDS011;8034;51.442;-0.522;2022-07-04T07:36:16;23.13;;;21.87;;
15869;SDS011;8034;51.442;-0.522;2022-07-04T07:39:32;22.23;;;21.03;;
15869;SDS011;8034;51.442;-0.522;2022-07-04T07:42:03;21.93;;;20.83;;
15869;SDS011;8034;51.442;-0.522;2022-07-04T07:45:17;20.40;;;19.37;;
15869;SDS011;8034;51.442;-0.522;2022-07-04T07:47:47;18.70;;;17.90;;
15869;SDS011;8034;51.442;-0.522;2022-07-04T07:51:01;17.93;;;17.13;;
15869;SDS011;8034;51.442;-0.522;2022-07-04T07:53:32;16.90;;;16.20;;
15869;SDS011;8034;51.442;-0.522;2022-07-04T07:56:46;16.40;;;15.50;;
15869;SDS011;8034;51.442;-0.522;2022-07-04T07:59:16;14.47;;;13.87;;
15869;SDS011;8034;51.442;-0.522;2022-07-04T08:02:30;13.07;;;12.57;;
15869;SDS011;8034;51.442;-0.522;2022-07-04T08:05:18;12.63;;;11.90;;
15869;SDS011;8034;51.442;-0.522;2022-07-04T08:08:32;16.00;;;15.00;;
15869;SDS011;8034;51.442;-0.522;2022-07-04T08:11:02;13.27;;;12.60;;
15869;SDS011;8034;51.442;-0.522;2022-07-04T08:14:17;12.23;;;11.60;;
15869;SDS011;8034;51.442;-0.522;2022-07-04T08:16:47;11.57;;;11.17;;
15869;SDS011;8034;51.442;-0.522;2022-07-04T08:20:01;11.43;;;10.80;;
15869;SDS011;8034;51.442;-0.522;2022-07-04T08:22:32;10.70;;;10.20;;
15869;SDS011;8034;51.442;-0.522;2022-07-04T08:25:47;10.40;;;9.87;;
15869;SDS011;8034;51.442;-0.522;2022-07-04T08:28:17;10.30;;;9.70;;
15869;SDS011;8034;51.442;-0.522;2022-07-04T08:31:31;10.00;;;9.60;;
15869;SDS011;8034;51.442;-0.522;2022-07-04T08:34:02;10.10;;;9.40;;
15869;SDS011;8034;51.442;-0.522;2022-07-04T08:37:16;9.83;;;9.40;;
15869;SDS011;8034;51.442;-0.522;2022-07-04T08:39:47;10.27;;;9.67;;
15869;SDS011;8034;51.442;-0.522;2022-07-04T08:43:02;9.77;;;9.27;;
15869;SDS011;8034;51.442;-0.522;2022-07-04T08:45:33;10.33;;;9.73;;
15869;SDS011;8034;51.442;-0.522;2022-07-04T08:48:50;9.80;;;9.40;;
15869;SDS011;8034;51.442;-0.522;2022-07-04T08:51:23;10.47;;;9.97;;
15869;SDS011;8034;51.442;-0.522;2022-07-04T08:54:39;10.90;;;10.30;;
15869;SDS011;8034;51.442;-0.522;2022-07-04T08:57:29;10.60;;;9.90;;
15869;SDS011;8034;51.442;-0.522;2022-07-04T09:00:42;10.10;;;9.70;;
15869;SDS011;8034;51.442;-0.522;2022-07-04T09:03:13;10.20;;;9.70;;
15869;SDS011;8034;51.442;-0.522;2022-07-04T09:06:26;10.63;;;9.93;;
15869;SDS011;8034;51.442;-0.522;2022-07-04T09:08:58;10.00;;;9.60;;
15869;SDS011;8034;51.442;-0.522;2022-07-04T09:12:12;9.90;;;9.40;;
15869;SDS011;8034;51.442;-0.522;2022-07-04T09:14:43;9.27;;;8.90;;
15869;SDS011;8034;51.442;-0.522;2022-07-04T09:17:57;9.33;;;8.97;;
15869;SDS011;8034;51.442;-0.522;2022-07-04T09:20:28;9.67;;;9.00;;
15869;SDS011;8034;51.442;-0.522;2022-07-04T09:23:43;9.40;;;8.90;;
15869;SDS011;8034;51.442;-0.522;2022-07-04T09:26:14;9.77;;;9.37;;
15869;SDS011;8034;51.442;-0.522;2022-07-04T09:29:28;9.53;;;9.13;;
15869;SDS011;8034;51.442;-0.522;2022-07-04T09:32:00;10.67;;;9.33;;
15869;SDS011;8034;51.442;-0.522;2022-07-04T09:35:15;9.83;;;9.33;;
15869;SDS011;8034;51.442;-0.522;2022-07-04T09:37:49;9.90;;;9.40;;
15869;SDS011;8034;51.442;-0.522;2022-07-04T09:41:07;10.20;;;9.70;;
15869;SDS011;8034;51.442;-0.522;2022-07-04T09:47:19;10.20;;;9.63;;
15869;SDS011;8034;51.442;-0.522;2022-07-04T09:50:01;10.23;;;9.63;;
15869;SDS011;8034;51.442;-0.522;2022-07-04T09:53:15;9.70;;;9.07;;
15869;SDS011;8034;51.442;-0.522;2022-07-04T09:55:46;9.53;;;9.13;;
15869;SDS011;8034;51.442;-0.522;2022-07-04T09:59:00;10.10;;;9.60;;
15869;SDS011;8034;51.442;-0.522;2022-07-04T10:01:32;9.60;;;9.20;;
15869;SDS011;8034;51.442;-0.522;2022-07-04T10:04:46;10.23;;;9.80;;
15869;SDS011;8034;51.442;-0.522;2022-07-04T10:07:32;10.53;;;10.13;;
15869;SDS011;8034;51.442;-0.522;2022-07-04T10:10:46;10.63;;;10.07;;
15869;SDS011;8034;51.442;-0.522;2022-07-04T10:13:17;10.53;;;10.03;;
15869;SDS011;8034;51.442;-0.522;2022-07-04T10:16:31;10.53;;;10.03;;
15869;SDS011;8034;51.442;-0.522;2022-07-04T10:19:05;10.45;;;9.95;;
15869;SDS011;8034;51.442;-0.522;2022-07-04T10:22:20;10.40;;;9.90;;
15869;SDS011;8034;51.442;-0.522;2022-07-04T10:24:52;10.77;;;10.13;;
15869;SDS011;8034;51.442;-0.522;2022-07-04T10:28:06;10.37;;;9.87;;
15869;SDS011;8034;51.442;-0.522;2022-07-04T10:30:36;10.10;;;9.70;;
15869;SDS011;8034;51.442;-0.522;2022-07-04T10:33:51;9.67;;;9.27;;
15869;SDS011;8034;51.442;-0.522;2022-07-04T10:36:22;10.47;;;9.87;;
15869;SDS011;8034;51.442;-0.522;2022-07-04T10:39:36;9.70;;;9.30;;
15869;SDS011;8034;51.442;-0.522;2022-07-04T10:42:09;10.47;;;10.07;;
15869;SDS011;8034;51.442;-0.522;2022-07-04T10:45:34;9.37;;;8.87;;
15869;SDS011;8034;51.442;-0.522;2022-07-04T10:48:07;9.10;;;8.70;;
15869;SDS011;8034;51.442;-0.522;2022-07-04T10:51:35;8.40;;;8.10;;
15869;SDS011;8034;51.442;-0.522;2022-07-04T10:54:10;8.13;;;7.83;;
15869;SDS011;8034;51.442;-0.522;2022-07-04T10:57:26;8.67;;;8.37;;
15869;SDS011;8034;51.442;-0.522;2022-07-04T11:00:03;9.20;;;8.80;;
15869;SDS011;8034;51.442;-0.522;2022-07-04T11:03:18;8.80;;;8.30;;
15869;SDS011;8034;51.442;-0.522;2022-07-04T11:05:49;9.70;;;9.30;;
15869;SDS011;8034;51.442;-0.522;2022-07-04T11:09:15;9.57;;;9.03;;
15869;SDS011;8034;51.442;-0.522;2022-07-04T11:11:49;10.13;;;9.53;;
15869;SDS011;8034;51.442;-0.522;2022-07-04T11:15:05;10.58;;;9.98;;
15869;SDS011;8034;51.442;-0.522;2022-07-04T11:17:36;9.63;;;9.13;;
15869;SDS011;8034;51.442;-0.522;2022-07-04T11:20:50;10.20;;;9.70;;
15869;SDS011;8034;51.442;-0.522;2022-07-04T11:23:20;9.87;;;9.47;;
15869;SDS011;8034;51.442;-0.522;2022-07-04T11:26:34;9.60;;;9.13;;
15869;SDS011;8034;51.442;-0.522;2022-07-04T11:29:05;9.43;;;9.03;;
15869;SDS011;8034;51.442;-0.522;2022-07-04T11:32:19;10.97;;;10.40;;
15869;SDS011;8034;51.442;-0.522;2022-07-04T11:34:50;11.73;;;10.90;;
15869;SDS011;8034;51.442;-0.522;2022-07-04T11:38:04;14.50;;;13.70;;
15869;SDS011;8034;51.442;-0.522;2022-07-04T11:40:43;15.48;;;14.68;;
15869;SDS011;8034;51.442;-0.522;2022-07-04T11:43:59;11.77;;;11.27;;
15869;SDS011;8034;51.442;-0.522;2022-07-04T11:46:51;11.30;;;10.70;;
15869;SDS011;8034;51.442;-0.522;2022-07-04T11:50:16;12.33;;;11.05;;
15869;SDS011;8034;51.442;-0.522;2022-07-04T11:52:47;11.50;;;10.80;;
15869;SDS011;8034;51.442;-0.522;2022-07-04T11:56:03;10.93;;;10.38;;
15869;SDS011;8034;51.442;-0.522;2022-07-04T11:58:38;11.18;;;10.28;;
15869;SDS011;8034;51.442;-0.522;2022-07-04T12:01:52;10.35;;;9.85;;
15869;SDS011;8034;51.442;-0.522;2022-07-04T12:04:23;10.40;;;9.97;;
15869;SDS011;8034;51.442;-0.522;2022-07-04T12:07:37;11.03;;;10.43;;
15869;SDS011;8034;51.442;-0.522;2022-07-04T12:10:09;10.50;;;10.00;;
15869;SDS011;8034;51.442;-0.522;2022-07-04T12:13:23;10.38;;;9.80;;
15869;SDS011;8034;51.442;-0.522;2022-07-04T12:15:54;10.53;;;9.93;;
15869;SDS011;8034;51.442;-0.522;2022-07-04T12:19:08;10.32;;;9.93;;
15869;SDS011;8034;51.442;-0.522;2022-07-04T12:21:39;10.20;;;9.70;;
15869;SDS011;8034;51.442;-0.522;2022-07-04T12:24:55;10.17;;;9.77;;
15869;SDS011;8034;51.442;-0.522;2022-07-04T12:27:26;10.50;;;9.90;;
15869;SDS011;8034;51.442;-0.522;2022-07-04T12:30:48;10.75;;;10.28;;
15869;SDS011;8034;51.442;-0.522;2022-07-04T12:33:19;10.53;;;9.83;;
15869;SDS011;8034;51.442;-0.522;2022-07-04T12:36:33;10.43;;;9.85;;
15869;SDS011;8034;51.442;-0.522;2022-07-04T12:39:26;10.47;;;9.97;;
15869;SDS011;8034;51.442;-0.522;2022-07-04T12:42:41;10.50;;;10.00;;
15869;SDS011;8034;51.442;-0.522;2022-07-04T12:45:13;10.90;;;10.30;;
15869;SDS011;8034;51.442;-0.522;2022-07-04T12:48:27;10.50;;;10.00;;
15869;SDS011;8034;51.442;-0.522;2022-07-04T12:51:08;10.08;;;9.58;;
15869;SDS011;8034;51.442;-0.522;2022-07-04T12:54:23;10.90;;;10.30;;
15869;SDS011;8034;51.442;-0.522;2022-07-04T12:57:01;11.40;;;10.80;;
15869;SDS011;8034;51.442;-0.522;2022-07-04T13:00:15;10.90;;;10.40;;
15869;SDS011;8034;51.442;-0.522;2022-07-04T13:02:45;11.45;;;10.85;;
15869;SDS011;8034;51.442;-0.522;2022-07-04T13:05:59;11.12;;;10.40;;
15869;SDS011;8034;51.442;-0.522;2022-07-04T13:08:29;11.20;;;10.60;;
15869;SDS011;8034;51.442;-0.522;2022-07-04T13:11:43;11.43;;;10.72;;
15869;SDS011;8034;51.442;-0.522;2022-07-04T13:14:31;11.47;;;10.87;;
15869;SDS011;8034;51.442;-0.522;2022-07-04T13:17:45;11.57;;;10.90;;
15869;SDS011;8034;51.442;-0.522;2022-07-04T13:20:15;11.73;;;10.93;;
15869;SDS011;8034;51.442;-0.522;2022-07-04T13:23:29;10.80;;;10.30;;
15869;SDS011;8034;51.442;-0.522;2022-07-04T13:25:59;10.28;;;9.75;;
15869;SDS011;8034;51.442;-0.522;2022-07-04T13:29:13;10.93;;;10.28;;
15869;SDS011;8034;51.442;-0.522;2022-07-04T13:31:43;11.38;;;10.68;;
15869;SDS011;8034;51.442;-0.522;2022-07-04T13:34:57;10.28;;;9.78;;
15869;SDS011;8034;51.442;-0.522;2022-07-04T13:37:28;10.55;;;10.05;;
15869;SDS011;8034;51.442;-0.522;2022-07-04T13:40:42;11.57;;;10.68;;
15869;SDS011;8034;51.442;-0.522;2022-07-04T13:43:13;10.60;;;10.10;;
15869;SDS011;8034;51.442;-0.522;2022-07-04T13:46:28;11.38;;;10.75;;
15869;SDS011;8034;51.442;-0.522;2022-07-04T13:49:00;11.40;;;10.70;;
15869;SDS011;8034;51.442;-0.522;2022-07-04T13:52:14;10.70;;;10.20;;
15869;SDS011;8034;51.442;-0.522;2022-07-04T13:54:44;11.20;;;10.60;;
15869;SDS011;8034;51.442;-0.522;2022-07-04T13:57:58;10.50;;;10.00;;
15869;SDS011;8034;51.442;-0.522;2022-07-04T14:00:29;11.78;;;10.93;;
15869;SDS011;8034;51.442;-0.522;2022-07-04T14:03:43;11.35;;;10.65;;
15869;SDS011;8034;51.442;-0.522;2022-07-04T14:06:14;10.67;;;10.17;;
15869;SDS011;8034;51.442;-0.522;2022-07-04T14:09:29;11.00;;;10.50;;
15869;SDS011;8034;51.442;-0.522;2022-07-04T14:11:59;11.60;;;10.93;;
15869;SDS011;8034;51.442;-0.522;2022-07-04T14:15:13;11.30;;;10.60;;
15869;SDS011;8034;51.442;-0.522;2022-07-04T14:17:43;10.15;;;9.55;;
15869;SDS011;8034;51.442;-0.522;2022-07-04T14:20:57;10.93;;;10.43;;
15869;SDS011;8034;51.442;-0.522;2022-07-04T14:23:28;10.43;;;9.90;;
15869;SDS011;8034;51.442;-0.522;2022-07-04T14:26:42;9.83;;;9.33;;
15869;SDS011;8034;51.442;-0.522;2022-07-04T14:29:12;10.57;;;9.93;;
15869;SDS011;8034;51.442;-0.522;2022-07-04T14:32:26;10.43;;;9.93;;
15869;SDS011;8034;51.442;-0.522;2022-07-04T14:34:56;10.75;;;10.25;;
15869;SDS011;8034;51.442;-0.522;2022-07-04T14:38:10;10.38;;;9.85;;
15869;SDS011;8034;51.442;-0.522;2022-07-04T14:40:40;10.32;;;9.73;;
15869;SDS011;8034;51.442;-0.522;2022-07-04T14:43:55;10.63;;;9.88;;
15869;SDS011;8034;51.442;-0.522;2022-07-04T14:46:25;10.00;;;9.40;;
15869;SDS011;8034;51.442;-0.522;2022-07-04T14:49:39;9.98;;;9.40;;
15869;SDS011;8034;51.442;-0.522;2022-07-04T14:52:09;10.93;;;10.23;;
15869;SDS011;8034;51.442;-0.522;2022-07-04T14:55:23;11.40;;;10.30;;
15869;SDS011;8034;51.442;-0.522;2022-07-04T14:57:54;10.83;;;10.23;;
15869;SDS011;8034;51.442;-0.522;2022-07-04T15:01:08;11.15;;;10.40;;
15869;SDS011;8034;51.442;-0.522;2022-07-04T15:03:38;10.50;;;10.00;;
15869;SDS011;8034;51.442;-0.522;2022-07-04T15:06:52;11.50;;;10.90;;
15869;SDS011;8034;51.442;-0.522;2022-07-04T15:09:22;15.50;;;14.83;;
15869;SDS011;8034;51.442;-0.522;2022-07-04T15:12:36;11.63;;;10.95;;
15869;SDS011;8034;51.442;-0.522;2022-07-04T15:18:20;11.30;;;10.80;;
15869;SDS011;8034;51.442;-0.522;2022-07-04T15:21:34;11.70;;;10.98;;
15869;SDS011;8034;51.442;-0.522;2022-07-04T15:24:22;12.43;;;11.57;;
15869;SDS011;8034;51.442;-0.522;2022-07-04T15:27:36;11.68;;;10.98;;
15869;SDS011;8034;51.442;-0.522;2022-07-04T15:30:07;11.63;;;10.93;;
15869;SDS011;8034;51.442;-0.522;2022-07-04T15:33:24;11.53;;;10.93;;
15869;SDS011;8034;51.442;-0.522;2022-07-04T15:36:00;11.05;;;10.45;;
15869;SDS011;8034;51.442;-0.522;2022-07-04T15:39:15;10.93;;;10.45;;
15869;SDS011;8034;51.442;-0.522;2022-07-04T15:41:45;11.73;;;11.03;;
15869;SDS011;8034;51.442;-0.522;2022-07-04T15:44:59;11.10;;;10.40;;
15869;SDS011;8034;51.442;-0.522;2022-07-04T15:47:30;11.43;;;10.70;;
15869;SDS011;8034;51.442;-0.522;2022-07-04T15:50:45;11.15;;;10.43;;
15869;SDS011;8034;51.442;-0.522;2022-07-04T15:53:16;11.97;;;11.22;;
15869;SDS011;8034;51.442;-0.522;2022-07-04T15:56:31;10.48;;;9.98;;
15869;SDS011;8034;51.442;-0.522;2022-07-04T15:59:01;10.58;;;9.98;;
15869;SDS011;8034;51.442;-0.522;2022-07-04T16:02:15;11.03;;;10.53;;
15869;SDS011;8034;51.442;-0.522;2022-07-04T16:04:45;11.08;;;10.58;;
15869;SDS011;8034;51.442;-0.522;2022-07-04T16:07:51;11.05;;;10.32;;
15869;SDS011;8034;51.442;-0.522;2022-07-04T16:10:21;10.50;;;9.90;;
15869;SDS011;8034;51.442;-0.522;2022-07-04T16:13:35;10.78;;;10.18;;
15869;SDS011;8034;51.442;-0.522;2022-07-04T16:16:05;10.72;;;10.13;;
15869;SDS011;8034;51.442;-0.522;2022-07-04T16:19:19;10.35;;;9.75;;
15869;SDS011;8034;51.442;-0.522;2022-07-04T16:21:53;10.70;;;10.18;;
15869;SDS011;8034;51.442;-0.522;2022-07-04T16:25:08;10.85;;;10.15;;
15869;SDS011;8034;51.442;-0.522;2022-07-04T16:27:38;11.28;;;10.68;;
15869;SDS011;8034;51.442;-0.522;2022-07-04T16:30:52;10.45;;;9.95;;
15869;SDS011;8034;51.442;-0.522;2022-07-04T16:33:24;10.58;;;10.00;;
15869;SDS011;8034;51.442;-0.522;2022-07-04T16:36:39;11.37;;;10.67;;
15869;SDS011;8034;51.442;-0.522;2022-07-04T16:39:09;12.13;;;11.20;;
15869;SDS011;8034;51.442;-0.522;2022-07-04T16:42:23;11.70;;;11.00;;
15869;SDS011;8034;51.442;-0.522;2022-07-04T16:44:53;11.70;;;11.03;;
15869;SDS011;8034;51.442;-0.522;2022-07-04T16:48:08;11.22;;;10.32;;
15869;SDS011;8034;51.442;-0.522;2022-07-04T16:50:38;11.38;;;10.88;;
15869;SDS011;8034;51.442;-0.522;2022-07-04T16:53:52;11.88;;;11.18;;
15869;SDS011;8034;51.442;-0.522;2022-07-04T16:56:23;12.47;;;11.78;;
15869;SDS011;8034;51.442;-0.522;2022-07-04T16:59:37;11.12;;;10.53;;
15869;SDS011;8034;51.442;-0.522;2022-07-04T17:02:07;11.53;;;10.83;;
15869;SDS011;8034;51.442;-0.522;2022-07-04T17:05:21;11.85;;;11.15;;
15869;SDS011;8034;51.442;-0.522;2022-07-04T17:07:51;11.68;;;11.05;;